TimeEDT,TemperatureF,Dew PointF,Humidity,Sea Level PressureIn,VisibilityMPH,Wind Direction,Wind SpeedMPH,Gust SpeedMPH,PrecipitationIn,Events,Conditions,WindDirDegrees,DateUTC
12:53 AM,68.0,64.9,90,30.04,10.0,SW,8.1,-,0.00,Rain,Light Rain,230,2013-05-18 04:53:00
1:53 AM,66.0,63.0,90,30.04,6.0,WSW,8.1,-,0.04,Rain,Light Rain,250,2013-05-18 05:53:00
2:53 AM,64.9,62.1,90,30.02,10.0,Calm,Calm,-,0.01,Rain,Light Rain,0,2013-05-18 06:53:00
3:53 AM,64.0,62.1,93,30.01,8.0,Calm,Calm,-,0.04,Rain,Light Rain,0,2013-05-18 07:53:00
4:53 AM,64.0,63.0,96,30.01,5.0,ENE,3.5,-,0.01,Rain,Light Rain,60,2013-05-18 08:53:00
5:53 AM,64.0,62.1,93,30.01,6.0,NE,4.6,-,0.00,Rain,Light Rain,40,2013-05-18 09:53:00
6:53 AM,64.0,63.0,96,30.02,4.0,NE,4.6,-,0.02,Rain,Light Rain,40,2013-05-18 10:53:00
6:56 AM,64.4,62.6,94,30.05,2.0,NE,3.5,-,0.00,Rain,Light Rain,50,2013-05-18 10:56:00
7:53 AM,64.0,63.0,96,30.04,2.0,Calm,Calm,-,0.09,Rain,Light Rain,0,2013-05-18 11:53:00
8:34 AM,64.4,64.4,100,30.07,2.5,East,3.5,-,0.00,,Overcast,90,2013-05-18 12:34:00
8:53 AM,64.9,64.0,97,30.04,2.5,East,3.5,-,0.00,,Overcast,80,2013-05-18 12:53:00
9:09 AM,64.4,64.4,100,30.07,3.0,East,4.6,-,0.00,,Overcast,80,2013-05-18 13:09:00
9:53 AM,66.9,64.0,90,30.05,5.0,NE,5.8,-,0.00,,Overcast,50,2013-05-18 13:53:00
10:53 AM,70.0,64.9,84,30.04,7.0,East,4.6,-,0.00,,Mostly Cloudy,90,2013-05-18 14:53:00
11:53 AM,71.1,64.9,81,30.04,7.0,North,3.5,-,N/A,,Mostly Cloudy,350,2013-05-18 15:53:00
12:05 PM,71.6,64.4,78,30.06,10.0,North,4.6,-,N/A,,Overcast,350,2013-05-18 16:05:00
12:53 PM,72.0,64.9,78,30.03,10.0,North,4.6,-,N/A,,Overcast,360,2013-05-18 16:53:00
1:53 PM,72.0,66.0,81,30.03,10.0,NW,3.5,-,N/A,,Overcast,310,2013-05-18 17:53:00
2:02 PM,71.6,66.2,83,30.05,10.0,NNW,4.6,-,N/A,,Overcast,340,2013-05-18 18:02:00
2:41 PM,69.8,66.2,88,30.04,6.0,WNW,9.2,-,0.00,Rain,Light Rain,290,2013-05-18 18:41:00
2:53 PM,69.8,66.2,88,30.04,2.0,West,12.7,-,N/A,Rain,Light Rain,270,2013-05-18 18:53:00
3:12 PM,69.8,66.2,88,30.04,2.5,SW,6.9,-,0.02,Rain,Light Rain,230,2013-05-18 19:12:00
3:16 PM,69.8,66.2,88,30.04,3.0,SW,5.8,-,0.02,Rain,Light Rain,230,2013-05-18 19:16:00
3:53 PM,70.0,66.9,90,30.01,10.0,SW,4.6,-,0.02,,Overcast,220,2013-05-18 19:53:00
4:38 PM,73.4,66.2,78,30.02,10.0,Variable,5.8,-,0.00,,Mostly Cloudy,0,2013-05-18 20:38:00
4:53 PM,73.9,66.9,79,29.99,10.0,SSW,11.5,-,0.00,,Mostly Cloudy,200,2013-05-18 20:53:00
5:53 PM,73.9,66.0,76,29.98,10.0,SW,8.1,-,N/A,,Mostly Cloudy,230,2013-05-18 21:53:00
6:53 PM,73.9,66.0,76,29.98,10.0,SW,8.1,-,N/A,,Mostly Cloudy,220,2013-05-18 22:53:00
7:53 PM,72.0,66.9,84,29.99,10.0,Calm,Calm,-,0.02,Rain,Light Rain,0,2013-05-18 23:53:00
8:53 PM,70.0,68.0,93,30.00,10.0,North,3.5,-,0.00,,Overcast,350,2013-05-19 00:53:00
9:01 PM,69.8,68.0,94,30.02,10.0,NE,4.6,-,N/A,,Overcast,40,2013-05-19 01:01:00
9:22 PM,69.8,68.0,94,30.03,5.0,North,3.5,-,0.01,Rain,Rain,360,2013-05-19 01:22:00
9:53 PM,70.0,68.0,93,30.01,7.0,NE,5.8,-,0.02,Rain,Light Rain,50,2013-05-19 01:53:00
10:12 PM,69.8,68.0,94,30.03,2.0,ENE,3.5,-,0.01,Rain,Rain,60,2013-05-19 02:12:00
10:26 PM,69.8,68.0,94,30.03,5.0,ENE,4.6,-,0.13,Rain,Light Rain,60,2013-05-19 02:26:00
10:35 PM,69.8,68.0,94,30.03,1.8,Calm,Calm,-,0.14,Rain,Heavy Rain,0,2013-05-19 02:35:00
10:44 PM,69.8,68.0,94,30.04,3.0,NE,3.5,-,0.18,Rain,Rain,50,2013-05-19 02:44:00
10:53 PM,69.1,68.0,96,30.01,6.0,NNW,3.5,-,0.19,Rain,Light Rain,340,2013-05-19 02:53:00
11:23 PM,69.8,68.0,94,30.04,2.0,East,3.5,-,0.00,Rain,Heavy Rain,80,2013-05-19 03:23:00
11:38 PM,69.8,68.0,94,30.04,4.0,Calm,Calm,-,0.07,Rain,Rain,0,2013-05-19 03:38:00
11:53 PM,68.0,66.9,96,30.01,4.0,ENE,3.5,-,0.09,Rain,Rain,60,2013-05-19 03:53:00